Time;durP1;ratioP1;P1;durP2;ratioP2;P2;SDS_P1;SDS_P2;PMS_P1;PMS_P2;Temp;Humidity;BMP_temperature;BMP_pressure;BME280_temperature;BME280_humidity;BME280_pressure;Samples;Min_cycle;Max_cycle;Signal;HPM_P1;HPM_P2
2022/04/09 00:00:53;;;;;;;3.33;1.85;;;;;;;;;;5058905;28;20206;-85
2022/04/09 00:03:19;;;;;;;2.15;1.88;;;;;;;;;;5048799;28;20213;-85
2022/04/09 00:05:46;;;;;;;7.28;2.72;;;;;;;;;;5047828;28;20187;-86
2022/04/09 00:08:12;;;;;;;5.10;2.38;;;;;;;;;;5028316;28;20188;-85
2022/04/09 00:10:45;;;;;;;4.35;2.65;;;;;;;;;;5037006;28;20831;-86
2022/04/09 00:13:14;;;;;;;5.43;3.10;;;;;;;;;;5044659;28;20441;-86
2022/04/09 00:15:43;;;;;;;5.57;2.67;;;;;;;;;;5057875;28;20265;-86
2022/04/09 00:18:09;;;;;;;6.65;3.45;;;;;;;;;;5048818;28;20241;-86
2022/04/09 00:20:35;;;;;;;3.85;3.53;;;;;;;;;;5045493;28;20691;-86
2022/04/09 00:23:01;;;;;;;6.10;3.33;;;;;;;;;;5037884;28;20278;-86
2022/04/09 00:25:27;;;;;;;6.22;3.40;;;;;;;;;;5032573;28;20514;-85
2022/04/09 00:27:53;;;;;;;5.93;3.70;;;;;;;;;;5034178;28;20246;-85
2022/04/09 00:30:19;;;;;;;7.22;3.13;;;;;;;;;;5044107;28;20695;-85
2022/04/09 00:32:45;;;;;;;7.15;3.05;;;;;;;;;;5047691;28;20190;-86
2022/04/09 00:35:11;;;;;;;4.95;2.60;;;;;;;;;;5034354;28;20227;-85
2022/04/09 00:37:41;;;;;;;4.90;2.25;;;;;;;;;;5045399;28;20667;-85
2022/04/09 00:40:08;;;;;;;7.63;3.20;;;;;;;;;;5042227;28;20560;-85
2022/04/09 00:42:34;;;;;;;3.85;2.60;;;;;;;;;;5034368;28;20190;-85
2022/04/09 00:45:00;;;;;;;3.43;3.13;;;;;;;;;;5045197;28;20195;-85
2022/04/09 00:47:26;;;;;;;7.10;3.10;;;;;;;;;;5033361;28;20514;-85
2022/04/09 00:49:52;;;;;;;7.37;3.13;;;;;;;;;;5046114;28;20274;-85
2022/04/09 00:52:18;;;;;;;8.00;3.50;;;;;;;;;;5036137;28;20527;-84
2022/04/09 00:54:45;;;;;;;6.50;3.03;;;;;;;;;;5044531;28;20433;-85
2022/04/09 00:57:11;;;;;;;10.55;2.90;;;;;;;;;;5046969;28;20561;-86
2022/04/09 00:59:38;;;;;;;2.05;2.00;;;;;;;;;;5043281;28;20203;-85
2022/04/09 01:02:04;;;;;;;6.95;3.80;;;;;;;;;;5046960;28;20238;-86
2022/04/09 01:04:31;;;;;;;14.25;4.07;;;;;;;;;;5046051;28;20187;-86
2022/04/09 01:06:59;;;;;;;14.00;3.05;;;;;;;;;;5035963;28;20261;-85
2022/04/09 01:09:25;;;;;;;4.90;2.65;;;;;;;;;;5030627;28;20176;-85
2022/04/09 01:11:51;;;;;;;8.83;2.60;;;;;;;;;;5037877;28;20191;-85
2022/04/09 01:14:18;;;;;;;4.28;2.92;;;;;;;;;;5045070;28;20429;-85
2022/04/09 01:16:44;;;;;;;9.18;3.47;;;;;;;;;;5039858;28;20191;-85
2022/04/09 01:19:10;;;;;;;8.13;3.70;;;;;;;;;;5047399;28;20188;-85
2022/04/09 01:21:36;;;;;;;7.25;3.42;;;;;;;;;;5042587;28;20488;-86
2022/04/09 01:24:04;;;;;;;9.52;3.53;;;;;;;;;;5044257;28;20186;-85
2022/04/09 01:26:30;;;;;;;5.88;3.25;;;;;;;;;;5044663;28;20195;-85
2022/04/09 01:28:56;;;;;;;6.53;3.97;;;;;;;;;;5047008;28;20599;-85
2022/04/09 01:31:22;;;;;;;7.20;3.33;;;;;;;;;;5038457;28;20294;-85
2022/04/09 01:33:48;;;;;;;4.83;3.20;;;;;;;;;;5046424;28;20418;-84
2022/04/09 01:36:15;;;;;;;6.75;3.65;;;;;;;;;;5044278;28;20532;-85
2022/04/09 01:38:41;;;;;;;6.82;3.80;;;;;;;;;;5039865;28;20544;-85
2022/04/09 01:41:07;;;;;;;4.68;3.25;;;;;;;;;;5045361;28;20292;-84
2022/04/09 01:43:34;;;;;;;9.75;3.88;;;;;;;;;;5100924;22;20232;-86
2022/04/09 01:46:00;;;;;;;5.20;3.50;;;;;;;;;;5029096;28;20640;-87
2022/04/09 01:48:26;;;;;;;6.18;3.50;;;;;;;;;;5010437;28;20208;-87
2022/04/09 01:50:53;;;;;;;5.82;3.72;;;;;;;;;;5001536;28;20246;-87
2022/04/09 01:53:19;;;;;;;5.28;3.45;;;;;;;;;;5011312;28;20614;-87
2022/04/09 01:55:45;;;;;;;7.25;3.70;;;;;;;;;;5030522;28;20199;-89
2022/04/09 01:58:11;;;;;;;10.63;3.20;;;;;;;;;;5016587;28;20192;-87
2022/04/09 02:00:37;;;;;;;6.47;3.92;;;;;;;;;;5029467;28;20212;-88
2022/04/09 02:03:03;;;;;;;13.93;4.75;;;;;;;;;;5012206;28;20184;-88
2022/04/09 02:05:30;;;;;;;4.28;2.90;;;;;;;;;;5003214;28;20207;-86
2022/04/09 02:07:57;;;;;;;14.88;4.45;;;;;;;;;;5003057;28;20386;-86
2022/04/09 02:10:23;;;;;;;12.32;3.25;;;;;;;;;;5001679;28;20207;-88
2022/04/09 02:12:50;;;;;;;5.45;3.65;;;;;;;;;;5011972;28;20711;-88
2022/04/09 02:15:16;;;;;;;10.23;3.20;;;;;;;;;;5023466;28;20664;-87
2022/04/09 02:17:43;;;;;;;16.52;4.05;;;;;;;;;;5005235;28;20680;-88
2022/04/09 02:20:10;;;;;;;6.72;3.60;;;;;;;;;;5008564;28;20188;-87
2022/04/09 02:22:37;;;;;;;10.32;3.78;;;;;;;;;;5009994;28;20262;-87
2022/04/09 02:25:03;;;;;;;5.30;3.72;;;;;;;;;;5033533;28;20192;-88
2022/04/09 02:27:30;;;;;;;12.38;3.22;;;;;;;;;;5025196;28;20196;-87
2022/04/09 02:30:17;;;;;;;8.70;3.65;;;;;;;;;;5043537;28;20348;-86
2022/04/09 02:32:54;;;;;;;13.93;3.55;;;;;;;;;;5024350;28;20188;-86
2022/04/09 02:35:23;;;;;;;3.88;3.10;;;;;;;;;;5030736;28;20197;-87
2022/04/09 02:37:51;;;;;;;6.28;3.92;;;;;;;;;;5010694;28;20522;-89
2022/04/09 02:40:17;;;;;;;10.93;5.65;;;;;;;;;;5006586;28;20398;-87
2022/04/09 02:43:10;;;;;;;10.82;4.97;;;;;;;;;;5000712;28;20198;-86
2022/04/09 02:45:37;;;;;;;7.60;4.45;;;;;;;;;;4989451;28;20554;-87
2022/04/09 02:48:03;;;;;;;9.55;4.50;;;;;;;;;;4978028;28;20188;-87
2022/04/09 02:50:32;;;;;;;10.60;3.72;;;;;;;;;;4976786;28;20744;-86
2022/04/09 02:53:01;;;;;;;13.40;4.45;;;;;;;;;;4985472;28;20246;-87
2022/04/09 02:55:27;;;;;;;8.55;4.38;;;;;;;;;;5000948;28;20280;-87
2022/04/09 02:58:13;;;;;;;10.10;4.47;;;;;;;;;;4998587;28;20192;-87
2022/04/09 03:00:39;;;;;;;18.52;5.38;;;;;;;;;;5007265;28;20205;-86
2022/04/09 03:03:06;;;;;;;7.80;4.70;;;;;;;;;;5000043;28;20208;-87
2022/04/09 03:05:32;;;;;;;8.80;3.90;;;;;;;;;;5007913;28;20169;-87
2022/04/09 03:07:58;;;;;;;11.25;4.20;;;;;;;;;;4983521;28;20189;-87
2022/04/09 03:10:24;;;;;;;10.32;4.22;;;;;;;;;;5000645;28;20185;-86
2022/04/09 03:12:50;;;;;;;7.13;3.78;;;;;;;;;;4997898;28;20189;-88
2022/04/09 03:15:16;;;;;;;9.57;5.00;;;;;;;;;;4983252;28;20347;-87
2022/04/09 03:17:43;;;;;;;8.77;4.75;;;;;;;;;;4993706;28;20185;-87
2022/04/09 03:20:09;;;;;;;8.18;3.55;;;;;;;;;;5005269;28;20894;-88
2022/04/09 03:22:35;;;;;;;7.15;4.60;;;;;;;;;;4990367;28;20663;-88
2022/04/09 03:25:02;;;;;;;7.45;3.67;;;;;;;;;;5014243;28;20193;-88
2022/04/09 03:27:32;;;;;;;7.65;4.55;;;;;;;;;;4980760;28;20401;-87
2022/04/09 03:29:58;;;;;;;12.52;4.75;;;;;;;;;;4987085;28;20204;-88
2022/04/09 03:32:24;;;;;;;7.70;3.50;;;;;;;;;;4979512;28;20469;-88
2022/04/09 03:34:50;;;;;;;7.03;3.60;;;;;;;;;;5003178;28;20535;-88
2022/04/09 03:37:16;;;;;;;12.85;4.70;;;;;;;;;;5001259;28;20192;-88
2022/04/09 03:39:43;;;;;;;20.40;4.10;;;;;;;;;;4980490;28;20559;-87
2022/04/09 03:42:09;;;;;;;9.73;3.28;;;;;;;;;;4982745;28;20368;-87
2022/04/09 03:44:35;;;;;;;10.60;3.90;;;;;;;;;;4991220;28;20228;-87
2022/04/09 03:47:02;;;;;;;8.02;4.28;;;;;;;;;;4977712;28;20193;-86
2022/04/09 03:49:32;;;;;;;9.90;4.38;;;;;;;;;;4984630;28;20197;-86
2022/04/09 03:52:06;;;;;;;11.18;3.80;;;;;;;;;;4991023;28;20192;-87
2022/04/09 03:57:36;;;;;;;13.98;4.53;;;;;;;;;;5009128;28;20234;-87
2022/04/09 04:00:03;;;;;;;11.82;4.47;;;;;;;;;;5006594;28;20193;-87
2022/04/09 04:02:29;;;;;;;14.23;4.88;;;;;;;;;;4999963;28;20212;-87
2022/04/09 04:05:01;;;;;;;8.05;3.65;;;;;;;;;;4995216;28;20224;-86
2022/04/09 04:07:33;;;;;;;9.02;4.05;;;;;;;;;;5003295;28;20184;-88
2022/04/09 04:10:09;;;;;;;7.15;4.20;;;;;;;;;;4978474;28;20195;-86
2022/04/09 04:12:36;;;;;;;11.15;3.67;;;;;;;;;;5002876;28;20215;-86
2022/04/09 04:15:04;;;;;;;8.55;4.32;;;;;;;;;;4984102;28;20565;-86
2022/04/09 04:17:40;;;;;;;6.95;4.18;;;;;;;;;;4995947;28;20189;-86
2022/04/09 04:20:07;;;;;;;9.48;4.25;;;;;;;;;;4998820;28;20196;-87
2022/04/09 04:22:33;;;;;;;16.15;3.80;;;;;;;;;;5001090;28;20496;-88
2022/04/09 04:24:59;;;;;;;8.55;4.57;;;;;;;;;;5005963;28;20271;-87
2022/04/09 04:27:25;;;;;;;15.40;4.07;;;;;;;;;;4986559;28;20181;-86
2022/04/09 04:29:51;;;;;;;13.07;3.95;;;;;;;;;;4982437;28;20934;-87
2022/04/09 04:32:17;;;;;;;17.27;4.03;;;;;;;;;;4984361;28;20193;-86
2022/04/09 04:34:43;;;;;;;8.77;3.60;;;;;;;;;;4981070;28;20196;-86
2022/04/09 04:37:09;;;;;;;8.10;4.27;;;;;;;;;;4990365;28;20695;-87
2022/04/09 04:39:35;;;;;;;4.73;3.80;;;;;;;;;;5013720;28;20446;-87
2022/04/09 04:42:01;;;;;;;10.05;4.68;;;;;;;;;;5001818;28;20480;-87
2022/04/09 04:44:27;;;;;;;12.15;5.32;;;;;;;;;;5012697;28;20239;-86
2022/04/09 04:46:53;;;;;;;13.05;4.90;;;;;;;;;;4995826;28;20212;-87
2022/04/09 04:49:30;;;;;;;7.25;4.50;;;;;;;;;;4996950;28;20759;-88
2022/04/09 04:51:58;;;;;;;14.43;4.00;;;;;;;;;;5002909;28;20820;-87
2022/04/09 04:54:24;;;;;;;9.13;3.05;;;;;;;;;;4975755;28;20201;-86
2022/04/09 04:56:50;;;;;;;6.40;3.60;;;;;;;;;;4986869;28;20212;-87
2022/04/09 04:59:16;;;;;;;6.50;4.32;;;;;;;;;;4973532;28;20247;-87
2022/04/09 05:01:42;;;;;;;11.43;4.35;;;;;;;;;;5001807;28;20324;-89
2022/04/09 05:04:09;;;;;;;11.07;3.40;;;;;;;;;;5000242;28;20658;-88
2022/04/09 05:06:35;;;;;;;4.93;3.20;;;;;;;;;;5016801;28;20434;-84
2022/04/09 05:09:01;;;;;;;13.30;3.55;;;;;;;;;;4987561;28;20198;-86
2022/04/09 05:11:27;;;;;;;13.20;3.97;;;;;;;;;;4984856;28;20173;-87
2022/04/09 05:13:53;;;;;;;8.80;3.80;;;;;;;;;;4989403;28;21147;-86
2022/04/09 05:16:19;;;;;;;6.30;3.40;;;;;;;;;;4974409;28;20427;-87
2022/04/09 05:18:45;;;;;;;10.03;3.47;;;;;;;;;;4998507;28;20427;-87
2022/04/09 05:21:11;;;;;;;8.73;3.47;;;;;;;;;;5000294;28;20483;-87
2022/04/09 05:23:37;;;;;;;12.93;4.20;;;;;;;;;;4972947;28;20479;-88
2022/04/09 05:26:03;;;;;;;12.15;3.83;;;;;;;;;;5001580;28;20440;-87
2022/04/09 05:28:29;;;;;;;10.20;3.40;;;;;;;;;;4981929;28;20216;-88
2022/04/09 05:30:55;;;;;;;10.43;3.92;;;;;;;;;;4996451;28;20419;-87
2022/04/09 05:33:22;;;;;;;12.15;4.35;;;;;;;;;;5007095;28;20171;-88
2022/04/09 05:35:48;;;;;;;8.23;4.25;;;;;;;;;;4981460;28;20192;-87
2022/04/09 05:38:17;;;;;;;9.07;3.35;;;;;;;;;;5004348;28;20618;-87
2022/04/09 05:40:43;;;;;;;8.48;3.10;;;;;;;;;;4986731;28;20204;-87
2022/04/09 05:43:09;;;;;;;5.65;3.20;;;;;;;;;;4981533;28;20267;-87
2022/04/09 05:45:35;;;;;;;13.35;2.92;;;;;;;;;;4990800;28;20184;-88
2022/04/09 05:48:02;;;;;;;3.42;3.22;;;;;;;;;;4979036;28;20184;-87
2022/04/09 05:50:28;;;;;;;4.88;2.50;;;;;;;;;;4992898;28;20185;-88
2022/04/09 05:52:54;;;;;;;5.15;3.05;;;;;;;;;;4980099;28;20192;-88
2022/04/09 05:55:22;;;;;;;11.90;4.28;;;;;;;;;;4985714;28;20196;-89
2022/04/09 05:57:49;;;;;;;26.48;3.67;;;;;;;;;;4989532;28;20185;-88
2022/04/09 06:00:35;;;;;;;6.45;2.80;;;;;;;;;;5002206;28;20252;-87
2022/04/09 06:03:03;;;;;;;7.57;3.45;;;;;;;;;;4990721;28;20284;-87
2022/04/09 06:05:33;;;;;;;6.72;3.10;;;;;;;;;;4983100;28;20220;-87
2022/04/09 06:08:13;;;;;;;9.15;3.58;;;;;;;;;;4981660;28;20184;-88
2022/04/09 06:10:42;;;;;;;6.40;3.05;;;;;;;;;;4990733;28;20216;-88
2022/04/09 06:13:10;;;;;;;12.25;3.30;;;;;;;;;;5010698;28;20181;-88
2022/04/09 06:15:40;;;;;;;5.53;3.75;;;;;;;;;;4980788;28;20181;-86
2022/04/09 06:18:10;;;;;;;11.50;4.10;;;;;;;;;;4994681;28;20201;-87
2022/04/09 06:20:37;;;;;;;5.93;3.60;;;;;;;;;;4992867;28;20213;-88
2022/04/09 06:23:04;;;;;;;8.13;2.65;;;;;;;;;;5010995;28;20272;-88
2022/04/09 06:25:30;;;;;;;11.30;3.70;;;;;;;;;;4996892;28;20197;-86
2022/04/09 06:27:56;;;;;;;4.43;2.55;;;;;;;;;;5009818;28;20189;-88
2022/04/09 06:30:32;;;;;;;6.93;3.30;;;;;;;;;;4984393;28;20255;-87
2022/04/09 06:33:00;;;;;;;6.32;3.03;;;;;;;;;;4995681;28;20183;-88
2022/04/09 06:35:27;;;;;;;7.20;3.17;;;;;;;;;;4992185;28;20211;-87
2022/04/09 06:37:53;;;;;;;6.55;3.60;;;;;;;;;;4982028;28;20193;-89
2022/04/09 06:40:21;;;;;;;11.80;4.00;;;;;;;;;;4983715;28;20565;-88
2022/04/09 06:42:47;;;;;;;6.35;2.85;;;;;;;;;;5008461;28;20188;-86
2022/04/09 06:45:15;;;;;;;6.60;2.60;;;;;;;;;;4986750;28;20572;-86
2022/04/09 06:47:49;;;;;;;8.80;4.10;;;;;;;;;;4986902;28;20427;-87
2022/04/09 06:50:15;;;;;;;4.38;3.10;;;;;;;;;;4991420;28;20701;-89
2022/04/09 06:52:41;;;;;;;7.40;3.30;;;;;;;;;;4981384;28;20268;-89
2022/04/09 06:55:17;;;;;;;5.70;3.60;;;;;;;;;;4987878;28;20447;-88
2022/04/09 06:57:44;;;;;;;8.43;3.20;;;;;;;;;;4999921;28;20427;-88
2022/04/09 07:00:11;;;;;;;6.53;3.53;;;;;;;;;;5010921;28;20431;-90
2022/04/09 07:02:44;;;;;;;10.52;4.80;;;;;;;;;;5011329;28;20225;-86
2022/04/09 07:05:10;;;;;;;11.13;4.28;;;;;;;;;;5014356;28;20241;-86
2022/04/09 07:07:39;;;;;;;4.55;2.70;;;;;;;;;;5000036;28;20189;-90
2022/04/09 07:10:10;;;;;;;6.53;2.83;;;;;;;;;;4991497;28;20251;-90
2022/04/09 07:12:36;;;;;;;5.40;3.22;;;;;;;;;;5014194;28;20176;-89
2022/04/09 07:15:04;;;;;;;8.53;3.83;;;;;;;;;;4664696;28;9999823;-87
2022/04/09 07:17:31;;;;;;;8.27;3.83;;;;;;;;;;5010376;28;20208;-87
2022/04/09 07:19:58;;;;;;;7.90;3.90;;;;;;;;;;4992534;28;20201;-88
2022/04/09 07:22:24;;;;;;;11.20;3.90;;;;;;;;;;4997597;28;20916;-88
2022/04/09 07:24:50;;;;;;;11.83;4.10;;;;;;;;;;4978077;28;20197;-89
2022/04/09 07:27:21;;;;;;;9.80;2.93;;;;;;;;;;5000003;28;20443;-87
2022/04/09 07:29:48;;;;;;;10.13;4.45;;;;;;;;;;4998424;28;20526;-87
2022/04/09 07:32:14;;;;;;;7.90;3.25;;;;;;;;;;4985219;28;20229;-86
2022/04/09 07:34:40;;;;;;;1.57;1.47;;;;;;;;;;4991692;28;20650;-89
2022/04/09 07:37:08;;;;;;;7.27;3.90;;;;;;;;;;5005899;28;20444;-89
2022/04/09 07:39:42;;;;;;;8.73;4.00;;;;;;;;;;4994698;28;20447;-89
2022/04/09 07:42:15;;;;;;;6.87;3.50;;;;;;;;;;4993461;28;20224;-89
2022/04/09 07:44:42;;;;;;;9.93;4.63;;;;;;;;;;5004236;28;20769;-87
2022/04/09 07:47:11;;;;;;;10.67;3.27;;;;;;;;;;4983764;28;20446;-85
2022/04/09 07:49:56;;;;;;;;;;;;;;;;;;;;;
2022/04/09 07:52:25;;;;;;;6.40;3.13;;;;;;;;;;5000556;28;20980;-89
2022/04/09 07:55:21;;;;;;;8.10;2.83;;;;;;;;;;4997558;28;20486;-90
2022/04/09 07:57:50;;;;;;;9.93;3.77;;;;;;;;;;5004267;28;20423;-89
2022/04/09 08:00:19;;;;;;;7.93;2.60;;;;;;;;;;5086783;22;21110;-90
2022/04/09 08:02:48;;;;;;;6.93;3.37;;;;;;;;;;5058734;28;20544;-90
2022/04/09 08:05:22;;;;;;;9.57;5.80;;;;;;;;;;5042699;28;20501;-89
2022/04/09 08:07:52;;;;;;;5.90;3.70;;;;;;;;;;5044554;28;20422;-90
2022/04/09 08:10:18;;;;;;;14.15;4.80;;;;;;;;;;5055284;28;20442;-88
2022/04/09 08:12:48;;;;;;;3.20;2.78;;;;;;;;;;5052977;28;20669;-90
2022/04/09 08:15:16;;;;;;;4.95;3.08;;;;;;;;;;5040704;28;20202;-87
2022/04/09 08:17:43;;;;;;;5.75;3.38;;;;;;;;;;5049540;28;20218;-86
2022/04/09 08:20:09;;;;;;;5.65;2.97;;;;;;;;;;5050216;28;20781;-86
2022/04/09 08:22:35;;;;;;;24.60;4.70;;;;;;;;;;5052183;28;20283;-87
2022/04/09 08:25:05;;;;;;;8.20;3.17;;;;;;;;;;5048202;28;20425;-88
2022/04/09 08:27:31;;;;;;;15.90;4.10;;;;;;;;;;5053466;28;20487;-88
2022/04/09 08:30:04;;;;;;;9.30;3.17;;;;;;;;;;5057505;28;20447;-88
2022/04/09 08:32:30;;;;;;;6.30;3.80;;;;;;;;;;5062130;28;20416;-87
2022/04/09 08:34:56;;;;;;;11.07;3.10;;;;;;;;;;5049931;28;20388;-87
2022/04/09 08:37:22;;;;;;;6.33;2.97;;;;;;;;;;5056412;28;20972;-87
2022/04/09 08:39:49;;;;;;;5.55;2.65;;;;;;;;;;5069332;28;20470;-88
2022/04/09 08:42:15;;;;;;;2.40;2.30;;;;;;;;;;5062650;28;20218;-88
2022/04/09 08:44:41;;;;;;;3.30;2.40;;;;;;;;;;4701643;28;10000369;-88
2022/04/09 08:47:09;;;;;;;3.10;2.90;;;;;;;;;;5064414;28;20345;-87
2022/04/09 08:49:37;;;;;;;2.70;2.30;;;;;;;;;;5057783;28;20448;-89
2022/04/09 08:52:06;;;;;;;9.23;2.63;;;;;;;;;;5042663;28;20475;-89
2022/04/09 08:54:34;;;;;;;6.53;2.30;;;;;;;;;;5050019;28;20450;-89
2022/04/09 08:57:00;;;;;;;3.00;1.50;;;;;;;;;;5052099;28;20440;-88
2022/04/09 08:59:26;;;;;;;1.60;1.10;;;;;;;;;;5041312;28;21028;-87
2022/04/09 09:01:52;;;;;;;0.60;0.60;;;;;;;;;;5061417;28;20568;-87
2022/04/09 09:04:18;;;;;;;1.40;0.93;;;;;;;;;;5058302;28;20430;-88
2022/04/09 09:06:45;;;;;;;0.73;0.73;;;;;;;;;;5055465;28;20461;-89
2022/04/09 09:09:27;;;;;;;1.10;1.00;;;;;;;;;;5053611;28;20423;-88
2022/04/09 09:11:53;;;;;;;2.83;1.17;;;;;;;;;;5068148;28;20504;-87
2022/04/09 09:14:32;;;;;;;2.30;1.07;;;;;;;;;;5057293;28;20435;-89
2022/04/09 09:16:58;;;;;;;2.23;1.10;;;;;;;;;;5065556;28;20428;-88
2022/04/09 09:19:40;;;;;;;1.50;1.03;;;;;;;;;;5044259;28;20425;-88
2022/04/09 09:22:06;;;;;;;1.60;1.50;;;;;;;;;;5072165;28;20504;-88
2022/04/09 09:24:32;;;;;;;2.50;1.40;;;;;;;;;;5037076;28;20431;-89
2022/04/09 09:26:59;;;;;;;1.53;1.43;;;;;;;;;;5052604;28;20440;-90
2022/04/09 09:29:30;;;;;;;4.63;2.70;;;;;;;;;;5064226;28;20432;-88
2022/04/09 09:31:58;;;;;;;1.10;1.10;;;;;;;;;;5060903;28;20441;-88
2022/04/09 09:34:27;;;;;;;1.43;1.37;;;;;;;;;;5065555;28;20484;-87
2022/04/09 09:36:53;;;;;;;2.83;1.87;;;;;;;;;;5071715;28;20447;-88
2022/04/09 09:39:27;;;;;;;2.23;2.10;;;;;;;;;;5044092;28;20433;-88
2022/04/09 09:41:54;;;;;;;2.33;2.13;;;;;;;;;;5040243;28;20499;-87
2022/04/09 09:44:23;;;;;;;1.80;1.70;;;;;;;;;;5070365;28;20902;-87
2022/04/09 09:46:50;;;;;;;1.10;1.10;;;;;;;;;;5044420;28;20509;-88
2022/04/09 09:49:17;;;;;;;1.43;1.13;;;;;;;;;;5047451;28;20516;-88
2022/04/09 09:52:02;;;;;;;1.67;1.20;;;;;;;;;;5043502;28;20437;-88
2022/04/09 09:54:28;;;;;;;1.70;1.10;;;;;;;;;;5072219;28;20417;-88
2022/04/09 09:56:55;;;;;;;3.50;1.87;;;;;;;;;;5024508;28;20516;-88
2022/04/09 09:59:22;;;;;;;1.40;1.30;;;;;;;;;;5064830;28;20465;-89
2022/04/09 10:01:48;;;;;;;1.90;1.50;;;;;;;;;;5050771;28;20813;-89
2022/04/09 10:04:14;;;;;;;2.92;1.92;;;;;;;;;;5049977;28;20416;-88
2022/04/09 10:06:48;;;;;;;2.08;1.20;;;;;;;;;;5049742;28;20199;-88
2022/04/09 10:09:16;;;;;;;1.10;1.10;;;;;;;;;;5057766;28;20243;-88
2022/04/09 10:11:50;;;;;;;1.70;1.67;;;;;;;;;;5058308;28;20187;-89
2022/04/09 10:14:20;;;;;;;5.07;1.87;;;;;;;;;;5069854;28;20421;-89
2022/04/09 10:16:47;;;;;;;2.63;2.53;;;;;;;;;;4725771;28;10000471;-87
2022/04/09 10:19:14;;;;;;;4.53;2.87;;;;;;;;;;5071957;28;20194;-88
2022/04/09 10:21:44;;;;;;;3.50;2.00;;;;;;;;;;5071842;28;20536;-88
2022/04/09 10:24:18;;;;;;;2.93;2.73;;;;;;;;;;5052636;28;20811;-89
2022/04/09 10:26:45;;;;;;;2.47;2.37;;;;;;;;;;5044784;28;20424;-88
2022/04/09 10:29:11;;;;;;;1.13;1.13;;;;;;;;;;5056479;28;20466;-87
2022/04/09 10:31:39;;;;;;;3.07;2.77;;;;;;;;;;5053942;28;20444;-88
2022/04/09 10:34:06;;;;;;;2.80;2.57;;;;;;;;;;5047485;28;20437;-88
2022/04/09 10:36:44;;;;;;;2.90;2.70;;;;;;;;;;5074755;28;20421;-89
2022/04/09 10:39:38;;;;;;;3.80;3.50;;;;;;;;;;5057374;28;20870;-89
2022/04/09 10:42:06;;;;;;;2.13;2.00;;;;;;;;;;5066334;28;20476;-88
2022/04/09 10:44:52;;;;;;;5.63;2.90;;;;;;;;;;5058825;28;20458;-88
2022/04/09 10:47:29;;;;;;;2.70;2.50;;;;;;;;;;5065992;28;20441;-88
2022/04/09 10:50:26;;;;;;;3.23;2.93;;;;;;;;;;5059136;28;20399;-89
2022/04/09 10:53:03;;;;;;;4.40;2.30;;;;;;;;;;5043107;28;20421;-88
2022/04/09 10:55:31;;;;;;;1.80;1.37;;;;;;;;;;5053069;28;20906;-88
2022/04/09 10:58:01;;;;;;;3.77;3.47;;;;;;;;;;5063722;28;20514;-88
2022/04/09 11:00:31;;;;;;;3.37;3.13;;;;;;;;;;5071050;28;20517;-88
2022/04/09 11:03:04;;;;;;;1.60;1.50;;;;;;;;;;5028586;28;20449;-88
2022/04/09 11:05:33;;;;;;;2.10;2.00;;;;;;;;;;5047871;28;20453;-86
2022/04/09 11:08:09;;;;;;;1.47;1.23;;;;;;;;;;5076068;28;20687;-88
2022/04/09 11:10:39;;;;;;;1.90;1.80;;;;;;;;;;5077248;28;20792;-88
2022/04/09 11:13:12;;;;;;;2.20;1.00;;;;;;;;;;5068494;28;20418;-87
2022/04/09 11:15:39;;;;;;;1.10;1.10;;;;;;;;;;5065473;28;20437;-88
2022/04/09 11:18:05;;;;;;;2.63;1.80;;;;;;;;;;5062767;28;20953;-88
2022/04/09 11:20:33;;;;;;;1.00;0.90;;;;;;;;;;5059836;28;20429;-88
2022/04/09 11:23:07;;;;;;;2.20;2.20;;;;;;;;;;5049204;28;20445;-86
2022/04/09 11:25:33;;;;;;;1.50;0.87;;;;;;;;;;5061290;28;20432;-86
2022/04/09 11:31:16;;;;;;;1.00;1.00;;;;;;;;;;5054266;28;20483;-87
2022/04/09 11:33:55;;;;;;;1.88;1.20;;;;;;;;;;5061797;28;20493;-89
2022/04/09 11:36:23;;;;;;;3.27;1.37;;;;;;;;;;4706058;28;10000458;-86
2022/04/09 11:39:02;;;;;;;1.23;1.13;;;;;;;;;;5045271;28;20237;-87
2022/04/09 11:41:28;;;;;;;1.10;1.10;;;;;;;;;;5070277;28;21012;-86
2022/04/09 11:43:55;;;;;;;3.93;1.23;;;;;;;;;;5069846;28;20452;-89
2022/04/09 11:46:31;;;;;;;1.70;1.23;;;;;;;;;;5070286;28;20480;-86
2022/04/09 11:49:01;;;;;;;1.47;1.03;;;;;;;;;;5068059;28;20416;-89
2022/04/09 11:51:28;;;;;;;1.43;1.27;;;;;;;;;;5055447;28;20524;-88
2022/04/09 11:54:18;;;;;;;1.70;1.70;;;;;;;;;;5048920;28;20426;-87
2022/04/09 11:56:48;;;;;;;1.40;1.30;;;;;;;;;;5057299;28;20486;-87
2022/04/09 11:59:15;;;;;;;2.10;1.43;;;;;;;;;;5072671;28;20451;-87
2022/04/09 12:01:48;;;;;;;1.40;1.30;;;;;;;;;;5047951;28;20469;-89
2022/04/09 12:04:17;;;;;;;1.60;1.40;;;;;;;;;;5074109;28;20423;-88
2022/04/09 12:06:43;;;;;;;1.73;1.37;;;;;;;;;;5071687;28;20456;-88
2022/04/09 12:09:11;;;;;;;1.73;1.63;;;;;;;;;;5039464;28;20455;-87
2022/04/09 12:11:41;;;;;;;2.57;2.20;;;;;;;;;;5073723;28;20455;-88
2022/04/09 12:14:09;;;;;;;3.90;2.20;;;;;;;;;;5059933;28;20479;-87
2022/04/09 12:16:38;;;;;;;3.00;1.90;;;;;;;;;;5069350;28;20464;-85
2022/04/09 12:19:08;;;;;;;2.53;2.40;;;;;;;;;;5081357;28;20413;-87
2022/04/09 12:21:38;;;;;;;2.07;2.00;;;;;;;;;;5057200;28;20485;-85
2022/04/09 12:24:08;;;;;;;2.40;2.23;;;;;;;;;;5051717;28;20508;-85
2022/04/09 12:26:36;;;;;;;2.10;2.00;;;;;;;;;;5050698;28;20875;-87
2022/04/09 12:29:09;;;;;;;2.70;1.93;;;;;;;;;;5037719;28;20403;-87
2022/04/09 12:31:36;;;;;;;5.93;2.60;;;;;;;;;;5070424;28;20444;-89
2022/04/09 12:34:02;;;;;;;2.20;1.80;;;;;;;;;;5037908;28;20429;-89
2022/04/09 12:36:28;;;;;;;1.73;1.63;;;;;;;;;;5045933;28;20521;-88
2022/04/09 12:38:54;;;;;;;1.50;1.50;;;;;;;;;;5051569;28;20401;-88
2022/04/09 12:41:21;;;;;;;3.50;1.63;;;;;;;;;;5065997;28;20554;-90
2022/04/09 12:43:47;;;;;;;2.20;2.00;;;;;;;;;;5056984;28;20440;-88
2022/04/09 12:46:19;;;;;;;1.37;1.33;;;;;;;;;;5036178;28;20437;-88
2022/04/09 12:48:47;;;;;;;2.10;1.80;;;;;;;;;;5072498;28;20448;-88
2022/04/09 12:51:22;;;;;;;1.57;1.50;;;;;;;;;;5065395;28;20436;-88
2022/04/09 12:53:49;;;;;;;2.20;2.10;;;;;;;;;;5070893;28;20424;-90
2022/04/09 12:56:16;;;;;;;1.70;1.60;;;;;;;;;;5074194;28;20444;-88
2022/04/09 12:58:42;;;;;;;1.83;1.50;;;;;;;;;;5073865;28;20408;-87
2022/04/09 13:01:13;;;;;;;3.93;2.13;;;;;;;;;;5064908;28;20561;-88
2022/04/09 13:03:41;;;;;;;1.90;1.80;;;;;;;;;;5052607;28;20550;-90
2022/04/09 13:06:07;;;;;;;1.63;1.60;;;;;;;;;;5054706;28;20550;-89
2022/04/09 13:08:34;;;;;;;2.23;1.67;;;;;;;;;;4365410;28;10000662;-89
2022/04/09 13:11:13;;;;;;;4.00;1.88;;;;;;;;;;5092872;28;20189;-89
2022/04/09 13:13:47;;;;;;;2.53;2.07;;;;;;;;;;5065728;28;20194;-93
2022/04/09 13:16:13;;;;;;;4.57;1.80;;;;;;;;;;5067217;28;20425;-91
2022/04/09 13:18:41;;;;;;;2.27;2.00;;;;;;;;;;5067773;28;20452;-90
2022/04/09 13:21:13;;;;;;;2.47;1.60;;;;;;;;;;5081103;28;20459;-90
2022/04/09 13:23:42;;;;;;;4.53;2.30;;;;;;;;;;5062181;28;20425;-92
2022/04/09 13:26:08;;;;;;;1.60;1.60;;;;;;;;;;5062418;28;20960;-92
2022/04/09 13:28:52;;;;;;;2.70;2.60;;;;;;;;;;5060461;28;20447;-91
2022/04/09 13:31:18;;;;;;;1.73;1.63;;;;;;;;;;5065512;28;20429;-91
2022/04/09 13:33:44;;;;;;;1.73;1.50;;;;;;;;;;5060703;28;20443;-90
2022/04/09 13:36:30;;;;;;;2.10;1.70;;;;;;;;;;5067687;28;20451;-90
2022/04/09 13:39:11;;;;;;;;;;;;;;;;;;;;;
2022/04/09 13:41:46;;;;;;;2.90;1.63;;;;;;;;;;5083121;28;20485;-91
2022/04/09 13:44:14;;;;;;;2.13;1.57;;;;;;;;;;5062708;28;20429;-90
2022/04/09 13:46:45;;;;;;;1.10;1.10;;;;;;;;;;5058914;28;20422;-92
2022/04/09 13:49:11;;;;;;;1.13;1.13;;;;;;;;;;5059599;28;20421;-92
2022/04/09 13:51:38;;;;;;;3.65;1.10;;;;;;;;;;5060994;28;20471;-92
2022/04/09 13:54:05;;;;;;;1.23;1.20;;;;;;;;;;5076642;28;20232;-92
2022/04/09 13:56:32;;;;;;;1.52;1.40;;;;;;;;;;5082764;28;20210;-92
2022/04/09 13:58:58;;;;;;;1.67;0.85;;;;;;;;;;5076833;28;20210;-91
2022/04/09 14:01:24;;;;;;;0.95;0.80;;;;;;;;;;5051530;28;20328;-90
2022/04/09 14:03:52;;;;;;;2.90;2.53;;;;;;;;;;5071548;28;20191;-90
2022/04/09 14:06:20;;;;;;;1.10;1.10;;;;;;;;;;5049233;28;20209;-89
2022/04/09 14:08:47;;;;;;;1.88;0.95;;;;;;;;;;5073818;28;20195;-93
2022/04/09 14:11:17;;;;;;;1.15;1.05;;;;;;;;;;5068491;28;20229;-88
2022/04/09 14:13:44;;;;;;;0.97;0.70;;;;;;;;;;5061052;28;20166;-89
2022/04/09 14:16:14;;;;;;;2.93;1.20;;;;;;;;;;5066225;28;20492;-91
2022/04/09 14:18:44;;;;;;;2.10;1.10;;;;;;;;;;5064047;28;20592;-88
2022/04/09 14:21:13;;;;;;;2.00;1.50;;;;;;;;;;5061764;28;20468;-89
2022/04/09 14:23:40;;;;;;;1.73;1.53;;;;;;;;;;5065659;28;20421;-91
2022/04/09 14:26:06;;;;;;;1.37;1.27;;;;;;;;;;5049830;28;20432;-91
2022/04/09 14:28:35;;;;;;;2.87;1.20;;;;;;;;;;5043046;28;20903;-92
2022/04/09 14:31:01;;;;;;;2.50;1.10;;;;;;;;;;5059555;28;20460;-89
2022/04/09 14:33:29;;;;;;;0.93;0.90;;;;;;;;;;5068513;28;20493;-89
2022/04/09 14:35:58;;;;;;;4.00;1.80;;;;;;;;;;5069243;28;20437;-92
2022/04/09 14:38:25;;;;;;;2.07;2.07;;;;;;;;;;5062275;28;20781;-91
2022/04/09 14:40:53;;;;;;;1.73;1.73;;;;;;;;;;5044408;28;20504;-91
2022/04/09 14:43:22;;;;;;;1.20;1.10;;;;;;;;;;5046600;28;20445;-93
2022/04/09 14:45:48;;;;;;;1.10;1.10;;;;;;;;;;5079528;28;20539;-91
2022/04/09 14:48:19;;;;;;;1.90;1.10;;;;;;;;;;5062441;28;20440;-91
2022/04/09 14:51:01;;;;;;;1.53;1.10;;;;;;;;;;5064155;28;20410;-91
2022/04/09 14:53:36;;;;;;;0.90;0.90;;;;;;;;;;5064243;28;20429;-89
2022/04/09 14:56:13;;;;;;;1.80;0.90;;;;;;;;;;5076205;28;20441;-87
2022/04/09 14:58:42;;;;;;;1.30;1.20;;;;;;;;;;5066373;28;20451;-93